Time;durP1;ratioP1;P1;durP2;ratioP2;P2;SDS_P1;SDS_P2;PMS_P1;PMS_P2;Temp;Humidity;BMP_temperature;BMP_pressure;BME280_temperature;BME280_humidity;BME280_pressure;Samples;Min_cycle;Max_cycle;Signal;HPM_P1;HPM_P2
2023/12/31 04:00:48;;;;;;;1.73;1.55;;;23.80;29.00;;;;;;6001181;22;45466;-45
2023/12/31 04:03:14;;;;;;;2.15;1.80;;;23.80;29.00;;;;;;4914821;28;45281;-45
2023/12/31 04:05:39;;;;;;;2.00;1.70;;;23.80;29.00;;;;;;4946515;28;45623;-45
2023/12/31 04:08:05;;;;;;;1.83;1.70;;;23.80;29.00;;;;;;4961535;28;45485;-43
2023/12/31 04:10:33;;;;;;;1.50;1.40;;;23.80;29.00;;;;;;4958287;28;63599;-43
2023/12/31 04:12:59;;;;;;;2.35;1.80;;;23.80;29.00;;;;;;4979809;28;45037;-43
2023/12/31 04:15:24;;;;;;;2.15;1.80;;;23.80;29.00;;;;;;4964942;28;45265;-43
2023/12/31 04:17:51;;;;;;;2.10;1.70;;;23.80;29.00;;;;;;4968918;28;45297;-42
2023/12/31 04:20:17;;;;;;;2.13;1.70;;;23.80;29.00;;;;;;4972791;28;46478;-43
2023/12/31 04:22:42;;;;;;;2.33;1.70;;;23.80;29.00;;;;;;4974386;28;45878;-42
2023/12/31 04:25:08;;;;;;;1.77;1.60;;;23.70;29.00;;;;;;4977906;28;46054;-47
2023/12/31 04:27:38;;;;;;;1.87;1.63;;;23.70;29.00;;;;;;4974179;28;45166;-43
2023/12/31 04:30:07;;;;;;;1.73;1.63;;;23.70;28.90;;;;;;4974854;28;44961;-46
2023/12/31 04:32:33;;;;;;;1.63;1.52;;;23.70;29.00;;;;;;4949865;28;45238;-43
2023/12/31 04:34:59;;;;;;;1.90;1.70;;;23.70;29.00;;;;;;4977497;28;45567;-42
2023/12/31 04:37:24;;;;;;;2.42;1.80;;;23.70;29.00;;;;;;4974812;22;45587;-43
2023/12/31 04:39:50;;;;;;;2.38;1.67;;;23.70;29.00;;;;;;4987514;28;45454;-43
2023/12/31 04:42:15;;;;;;;1.73;1.63;;;23.70;29.00;;;;;;4950445;28;44674;-42
2023/12/31 04:44:41;;;;;;;1.70;1.60;;;23.70;29.00;;;;;;4982741;28;45338;-43
2023/12/31 04:47:07;;;;;;;1.63;1.52;;;23.70;29.00;;;;;;4962041;28;45291;-42
2023/12/31 04:49:32;;;;;;;2.10;1.70;;;23.70;29.00;;;;;;4967435;28;45697;-43
2023/12/31 04:51:58;;;;;;;1.88;1.58;;;23.70;29.00;;;;;;4967509;28;44881;-42
2023/12/31 04:54:23;;;;;;;1.60;1.50;;;23.70;29.00;;;;;;4963689;28;45599;-43
2023/12/31 04:56:49;;;;;;;1.87;1.67;;;23.70;29.00;;;;;;4960317;28;46130;-43
2023/12/31 04:59:14;;;;;;;1.87;1.50;;;23.70;29.00;;;;;;4982036;28;45782;-42
2023/12/31 05:01:40;;;;;;;1.80;1.70;;;23.60;28.90;;;;;;4934311;28;45372;-44
2023/12/31 05:04:05;;;;;;;1.90;1.70;;;23.60;28.90;;;;;;4973515;28;45392;-42
2023/12/31 05:06:31;;;;;;;1.67;1.57;;;23.60;28.90;;;;;;4969295;28;45342;-47
2023/12/31 05:08:58;;;;;;;1.73;1.50;;;23.60;29.00;;;;;;4939717;28;45296;-40
2023/12/31 05:11:24;;;;;;;1.60;1.50;;;23.60;28.90;;;;;;4959547;28;45632;-39
2023/12/31 05:13:49;;;;;;;1.75;1.63;;;23.60;28.90;;;;;;4970614;28;44831;-40
2023/12/31 05:16:15;;;;;;;2.03;1.67;;;23.60;29.00;;;;;;4964790;28;45401;-40
2023/12/31 05:18:50;;;;;;;2.35;1.50;;;23.60;29.00;;;;;;4975780;28;45154;-39
2023/12/31 05:21:16;;;;;;;4.15;1.77;;;23.60;29.00;;;;;;4968284;28;45145;-40
2023/12/31 05:23:41;;;;;;;1.73;1.53;;;23.60;29.00;;;;;;4972467;28;44834;-40
2023/12/31 05:26:07;;;;;;;2.07;1.70;;;23.50;29.00;;;;;;4950403;28;46252;-39
2023/12/31 05:28:32;;;;;;;2.10;1.70;;;23.50;29.00;;;;;;4974674;28;45537;-38
2023/12/31 05:30:58;;;;;;;2.03;1.80;;;23.50;29.00;;;;;;4922891;28;45544;-43
2023/12/31 05:33:23;;;;;;;2.47;1.60;;;23.50;29.00;;;;;;4952508;28;45172;-42
2023/12/31 05:35:49;;;;;;;2.10;1.70;;;23.50;29.00;;;;;;4962008;28;45826;-45
2023/12/31 05:38:16;;;;;;;2.00;1.60;;;23.50;29.30;;;;;;4961441;28;44674;-40
2023/12/31 05:40:41;;;;;;;2.30;1.80;;;23.50;29.00;;;;;;4963331;28;45610;-38
2023/12/31 05:43:07;;;;;;;1.73;1.58;;;23.50;29.00;;;;;;4960317;28;45226;-40
2023/12/31 05:45:32;;;;;;;2.25;1.75;;;23.50;29.00;;;;;;4961218;28;46072;-41
2023/12/31 05:47:58;;;;;;;1.93;1.47;;;23.50;29.00;;;;;;4956916;28;45265;-40
2023/12/31 05:50:24;;;;;;;2.47;1.73;;;23.50;29.00;;;;;;4971749;28;45382;-39
2023/12/31 05:52:49;;;;;;;2.45;1.67;;;23.50;29.00;;;;;;4940948;28;45704;-39
2023/12/31 05:55:15;;;;;;;1.90;1.60;;;23.50;29.00;;;;;;4956150;28;45221;-39
2023/12/31 05:57:42;;;;;;;2.45;1.77;;;23.50;29.00;;;;;;4970370;28;45576;-40
2023/12/31 06:00:09;;;;;;;1.63;1.52;;;23.50;29.00;;;;;;4976970;28;44882;-40
2023/12/31 06:02:35;;;;;;;1.50;1.40;;;23.50;29.10;;;;;;4949118;28;45873;-39
2023/12/31 06:05:02;;;;;;;1.60;1.50;;;23.40;29.10;;;;;;4959118;28;45708;-40
2023/12/31 06:07:27;;;;;;;1.50;1.30;;;23.40;29.00;;;;;;4938804;28;45376;-40
2023/12/31 06:09:53;;;;;;;2.13;1.50;;;23.40;29.00;;;;;;4980138;28;45724;-40
2023/12/31 06:12:18;;;;;;;2.40;1.70;;;23.40;29.00;;;;;;4952792;28;45932;-38
2023/12/31 06:14:44;;;;;;;2.10;1.70;;;23.40;29.00;;;;;;4974798;28;45902;-39
2023/12/31 06:17:09;;;;;;;1.50;1.40;;;23.40;29.00;;;;;;4960504;28;45339;-39
2023/12/31 06:19:35;;;;;;;1.77;1.60;;;23.40;29.00;;;;;;4978107;28;44756;-40
2023/12/31 06:22:00;;;;;;;1.50;1.40;;;23.40;29.00;;;;;;4969693;28;45459;-40
2023/12/31 06:24:26;;;;;;;1.67;1.45;;;23.40;29.10;;;;;;4979648;28;45277;-39
2023/12/31 06:26:52;;;;;;;2.20;1.83;;;23.40;29.10;;;;;;4934688;28;45598;-39
2023/12/31 06:29:18;;;;;;;2.00;1.75;;;23.30;29.00;;;;;;4979458;28;45379;-39
2023/12/31 06:31:43;;;;;;;2.77;2.10;;;23.30;29.00;;;;;;4940552;28;45544;-39
2023/12/31 06:34:09;;;;;;;2.87;2.57;;;23.30;29.00;;;;;;4983383;28;45176;-40
2023/12/31 06:36:35;;;;;;;3.90;2.73;;;23.30;29.50;;;;;;4971139;28;45392;-40
2023/12/31 06:39:00;;;;;;;3.47;2.97;;;23.30;29.10;;;;;;4947229;28;45332;-39
2023/12/31 06:41:26;;;;;;;3.80;3.07;;;23.30;29.10;;;;;;4972172;28;45201;-39
2023/12/31 06:43:51;;;;;;;4.20;3.20;;;23.30;29.10;;;;;;4959666;28;46122;-40
2023/12/31 06:46:17;;;;;;;3.83;3.40;;;23.30;29.10;;;;;;4953891;28;45752;-40
2023/12/31 06:48:42;;;;;;;3.70;2.83;;;23.30;29.10;;;;;;4975137;28;45169;-39
2023/12/31 06:51:08;;;;;;;3.77;3.20;;;23.30;29.10;;;;;;4967070;28;45471;-39
2023/12/31 06:53:34;;;;;;;3.53;3.13;;;23.30;29.10;;;;;;4984125;28;45793;-40
2023/12/31 06:56:06;;;;;;;3.17;2.87;;;23.30;29.10;;;;;;4963078;28;45311;-40
2023/12/31 06:58:31;;;;;;;3.30;3.00;;;23.30;29.20;;;;;;4963607;28;49657;-39
2023/12/31 07:00:57;;;;;;;4.50;3.10;;;23.30;29.20;;;;;;4950807;28;45174;-40
2023/12/31 07:03:22;;;;;;;3.80;3.00;;;23.30;29.20;;;;;;4979509;28;45236;-40
2023/12/31 07:05:48;;;;;;;3.35;2.90;;;23.30;29.20;;;;;;4965727;28;45467;-40
2023/12/31 07:08:14;;;;;;;4.68;3.60;;;23.30;29.20;;;;;;4980037;28;45205;-40
2023/12/31 07:10:39;;;;;;;3.22;2.92;;;23.30;29.20;;;;;;4975220;28;45416;-40
2023/12/31 07:13:05;;;;;;;3.30;3.00;;;23.20;29.10;;;;;;4978470;28;45269;-40
2023/12/31 07:15:30;;;;;;;3.77;2.90;;;23.20;29.20;;;;;;4950205;28;45344;-40
2023/12/31 07:17:56;;;;;;;2.90;2.60;;;23.20;29.10;;;;;;4973944;28;46074;-40
2023/12/31 07:20:22;;;;;;;3.00;2.70;;;23.20;29.10;;;;;;4975501;28;45978;-39
2023/12/31 07:22:47;;;;;;;3.00;2.70;;;23.20;29.10;;;;;;4969635;28;45919;-39
2023/12/31 07:25:13;;;;;;;3.80;2.87;;;23.20;29.10;;;;;;4977867;28;46103;-41
2023/12/31 07:27:39;;;;;;;2.93;2.57;;;23.20;29.10;;;;;;4958646;28;44997;-42
2023/12/31 07:30:05;;;;;;;3.08;2.78;;;23.20;29.20;;;;;;4968100;28;44729;-39
2023/12/31 07:32:31;;;;;;;3.10;2.53;;;23.20;29.30;;;;;;4923665;28;45721;-40
2023/12/31 07:34:57;;;;;;;2.67;2.40;;;23.20;29.20;;;;;;4975422;28;46315;-39
2023/12/31 07:37:22;;;;;;;2.93;2.40;;;23.10;29.10;;;;;;4973079;28;45358;-39
2023/12/31 07:39:48;;;;;;;2.70;2.50;;;23.20;29.20;;;;;;4958929;28;45441;-39
2023/12/31 07:42:15;;;;;;;2.80;2.50;;;23.10;29.20;;;;;;4968633;28;45213;-39
2023/12/31 07:44:40;;;;;;;2.40;2.20;;;23.10;29.20;;;;;;4982288;28;44950;-40
2023/12/31 07:47:06;;;;;;;2.70;2.30;;;23.10;29.20;;;;;;4962332;28;45225;-40
2023/12/31 07:49:33;;;;;;;3.22;2.10;;;23.10;29.20;;;;;;4966384;28;45738;-40
2023/12/31 07:51:59;;;;;;;2.38;2.17;;;23.10;29.20;;;;;;4970224;28;45256;-40
2023/12/31 07:54:25;;;;;;;2.75;2.20;;;23.10;29.20;;;;;;4983645;28;44927;-40
2023/12/31 07:56:51;;;;;;;2.63;2.17;;;23.10;29.20;;;;;;4949872;28;45054;-39
2023/12/31 07:59:17;;;;;;;2.80;2.23;;;23.10;29.20;;;;;;4977776;28;44706;-39
2023/12/31 08:01:42;;;;;;;2.30;2.10;;;23.10;29.20;;;;;;4961774;28;46686;-39
2023/12/31 08:04:08;;;;;;;2.57;1.97;;;23.10;29.20;;;;;;4978228;28;46030;-40
2023/12/31 08:06:34;;;;;;;2.17;1.98;;;23.10;29.30;;;;;;4972894;28;45372;-40
2023/12/31 08:09:00;;;;;;;2.60;2.07;;;23.10;29.30;;;;;;4976188;28;45465;-39
2023/12/31 08:11:26;;;;;;;2.30;2.00;;;23.10;29.30;;;;;;4966843;28;45116;-39
2023/12/31 08:13:51;;;;;;;3.00;2.10;;;23.10;29.30;;;;;;4961349;28;45894;-40
2023/12/31 08:16:19;;;;;;;2.50;2.10;;;23.10;29.30;;;;;;4960162;28;45360;-39
2023/12/31 08:18:44;;;;;;;1.73;1.60;;;23.10;29.30;;;;;;4979906;28;45492;-40
2023/12/31 08:21:10;;;;;;;2.17;1.80;;;23.00;29.30;;;;;;4972064;28;45531;-39
2023/12/31 08:23:36;;;;;;;2.15;1.80;;;23.00;29.20;;;;;;4983509;28;44741;-39
2023/12/31 08:26:01;;;;;;;1.95;1.75;;;23.00;29.20;;;;;;4973672;28;45304;-40
2023/12/31 08:28:27;;;;;;;2.00;1.80;;;23.00;29.30;;;;;;4962934;28;45348;-40
2023/12/31 08:30:52;;;;;;;1.98;1.65;;;23.00;29.30;;;;;;4958467;28;47707;-39
2023/12/31 08:33:18;;;;;;;1.90;1.70;;;23.00;29.30;;;;;;4972699;28;45675;-38
2023/12/31 08:35:43;;;;;;;1.92;1.73;;;23.00;29.30;;;;;;4941001;28;47236;-40
2023/12/31 08:38:09;;;;;;;2.20;2.00;;;22.90;29.20;;;;;;4971044;28;46212;-40
2023/12/31 08:40:35;;;;;;;2.33;1.98;;;22.90;29.20;;;;;;4968096;28;46283;-39
2023/12/31 08:43:01;;;;;;;2.35;1.95;;;23.00;29.30;;;;;;4971031;28;45482;-40
2023/12/31 08:45:27;;;;;;;2.00;1.80;;;22.90;29.20;;;;;;4967980;28;47204;-38
2023/12/31 08:47:52;;;;;;;2.00;1.70;;;22.90;29.30;;;;;;4954097;28;44989;-39
2023/12/31 08:50:18;;;;;;;2.50;1.77;;;22.90;29.20;;;;;;4973986;28;45399;-38
2023/12/31 08:52:45;;;;;;;1.70;1.60;;;22.90;29.30;;;;;;4972667;28;45787;-39
2023/12/31 08:55:11;;;;;;;2.00;1.80;;;22.90;29.30;;;;;;4958343;28;45545;-39
2023/12/31 08:57:39;;;;;;;1.90;1.70;;;22.90;29.20;;;;;;4971244;28;45592;-40
2023/12/31 09:00:07;;;;;;;2.00;1.80;;;22.90;29.20;;;;;;4958481;28;45936;-38
2023/12/31 09:02:32;;;;;;;1.85;1.60;;;22.80;29.20;;;;;;4927831;28;45291;-39
2023/12/31 09:04:58;;;;;;;2.57;1.63;;;22.90;29.20;;;;;;4975257;28;45181;-40
2023/12/31 09:07:23;;;;;;;2.53;2.00;;;22.90;29.30;;;;;;4965252;28;46714;-38
2023/12/31 09:09:49;;;;;;;1.80;1.70;;;22.90;29.30;;;;;;4953962;28;47468;-41
2023/12/31 09:12:15;;;;;;;2.10;1.67;;;22.90;29.30;;;;;;4959674;28;45259;-39
2023/12/31 09:14:40;;;;;;;1.90;1.80;;;22.90;29.30;;;;;;4981499;28;44772;-40
2023/12/31 09:17:06;;;;;;;3.17;1.63;;;22.90;29.30;;;;;;4964370;28;45422;-39
2023/12/31 09:19:31;;;;;;;2.10;1.90;;;22.90;29.30;;;;;;4980522;28;45265;-41
2023/12/31 09:21:57;;;;;;;2.37;1.80;;;22.90;29.30;;;;;;4967431;28;45322;-41
2023/12/31 09:24:22;;;;;;;3.10;1.90;;;22.90;29.30;;;;;;4973604;28;45164;-38
2023/12/31 09:26:48;;;;;;;2.70;2.13;;;22.90;29.30;;;;;;4972554;28;45460;-40
2023/12/31 09:29:14;;;;;;;2.63;2.00;;;22.80;29.30;;;;;;4952147;28;46673;-43
2023/12/31 09:31:39;;;;;;;2.17;1.98;;;22.90;29.30;;;;;;4962834;28;45292;-40
2023/12/31 09:34:05;;;;;;;2.40;1.70;;;22.90;29.30;;;;;;4972250;28;45198;-38
2023/12/31 09:36:31;;;;;;;2.00;1.67;;;22.90;29.30;;;;;;4969316;28;45701;-40
2023/12/31 09:38:56;;;;;;;2.00;1.80;;;22.90;29.30;;;;;;4977032;28;46085;-40
2023/12/31 09:41:23;;;;;;;3.57;1.80;;;22.90;29.30;;;;;;4970672;28;45406;-40
2023/12/31 09:43:52;;;;;;;2.00;1.80;;;23.00;29.30;;;;;;4980967;28;47837;-40
2023/12/31 09:46:22;;;;;;;1.92;1.73;;;23.00;29.30;;;;;;4941641;28;45479;-39
2023/12/31 09:48:48;;;;;;;1.70;1.60;;;23.00;29.30;;;;;;4973296;28;45963;-39
2023/12/31 09:51:15;;;;;;;2.92;2.00;;;23.00;29.30;;;;;;4972463;28;44930;-39
2023/12/31 09:53:41;;;;;;;1.85;1.67;;;23.00;29.30;;;;;;4963298;28;45439;-40
2023/12/31 09:56:06;;;;;;;1.95;1.63;;;23.00;29.30;;;;;;4946889;28;45416;-41
2023/12/31 09:58:33;;;;;;;2.97;1.63;;;23.00;29.30;;;;;;4949579;28;46803;-44
2023/12/31 10:00:58;;;;;;;2.08;1.55;;;23.10;29.30;;;;;;4923812;28;45255;-42
2023/12/31 10:03:25;;;;;;;2.20;1.77;;;23.10;29.30;;;;;;4959208;28;45049;-44
2023/12/31 10:05:51;;;;;;;2.00;1.70;;;23.10;29.30;;;;;;4951412;28;45266;-40
2023/12/31 10:08:16;;;;;;;2.23;1.80;;;23.10;29.30;;;;;;4962335;28;45435;-44
2023/12/31 10:10:42;;;;;;;2.10;1.88;;;23.10;29.30;;;;;;4956301;28;44972;-45
2023/12/31 10:13:17;;;;;;;1.87;1.70;;;23.10;29.30;;;;;;4959923;28;45653;-45
2023/12/31 10:15:43;;;;;;;2.60;1.80;;;23.10;29.30;;;;;;4966382;28;44793;-48
2023/12/31 10:18:09;;;;;;;2.20;1.80;;;23.20;29.30;;;;;;4973786;28;48201;-43
2023/12/31 10:20:37;;;;;;;2.05;1.75;;;23.20;29.30;;;;;;4969399;28;45413;-43
2023/12/31 10:23:03;;;;;;;2.22;1.90;;;23.20;29.30;;;;;;4957523;28;45469;-43
2023/12/31 10:25:29;;;;;;;2.30;1.77;;;23.20;29.30;;;;;;4973438;28;45351;-43
2023/12/31 10:27:55;;;;;;;2.22;1.73;;;23.30;29.30;;;;;;4976656;28;45272;-43
2023/12/31 10:30:21;;;;;;;1.90;1.70;;;23.30;29.30;;;;;;4951657;28;45445;-44
2023/12/31 10:32:50;;;;;;;2.13;1.52;;;23.30;29.30;;;;;;4977405;28;46830;-44
2023/12/31 10:35:20;;;;;;;2.50;1.88;;;23.30;29.30;;;;;;4973113;28;44736;-42
2023/12/31 10:37:45;;;;;;;2.40;1.90;;;23.30;29.30;;;;;;4946631;28;46413;-43
2023/12/31 10:40:19;;;;;;;2.33;1.75;;;23.30;29.30;;;;;;4977433;28;45476;-44
2023/12/31 10:42:48;;;;;;;1.90;1.70;;;23.40;29.20;;;;;;4979673;28;45237;-42
2023/12/31 10:45:15;;;;;;;1.75;1.58;;;23.40;29.20;;;;;;4974322;28;46261;-45
2023/12/31 10:47:41;;;;;;;2.15;1.85;;;23.50;29.20;;;;;;4961136;28;45400;-42
2023/12/31 10:50:07;;;;;;;1.83;1.73;;;23.50;29.20;;;;;;4940090;28;44861;-46
2023/12/31 10:52:32;;;;;;;2.03;1.73;;;23.50;29.20;;;;;;4962204;28;45706;-43
2023/12/31 10:54:58;;;;;;;2.23;1.87;;;23.50;29.20;;;;;;4962518;28;45683;-45
2023/12/31 10:57:23;;;;;;;2.03;1.83;;;23.50;29.20;;;;;;4946167;28;47170;-42
2023/12/31 10:59:49;;;;;;;2.13;1.87;;;23.60;29.30;;;;;;4936442;28;46760;-40
2023/12/31 11:02:20;;;;;;;1.87;1.77;;;23.60;29.20;;;;;;4935177;28;45935;-39
2023/12/31 11:04:47;;;;;;;2.03;1.80;;;23.60;29.20;;;;;;4963693;28;45815;-38
2023/12/31 11:07:17;;;;;;;2.55;1.88;;;23.60;29.20;;;;;;4948001;28;45985;-39
2023/12/31 11:09:43;;;;;;;2.42;1.90;;;23.70;29.20;;;;;;4962001;28;45217;-40
2023/12/31 11:12:09;;;;;;;2.20;2.00;;;23.70;29.20;;;;;;4968693;28;45869;-40
2023/12/31 11:14:37;;;;;;;2.00;1.67;;;23.70;29.20;;;;;;4945649;28;46377;-39
2023/12/31 11:17:05;;;;;;;2.42;2.10;;;23.70;29.20;;;;;;4940418;28;45480;-38
2023/12/31 11:19:59;;;;;;;2.00;1.80;;;23.70;29.20;;;;;;4976627;28;45241;-40
2023/12/31 11:22:39;;;;;;;3.00;1.90;;;23.80;29.20;;;;;;4954900;28;45249;-40
2023/12/31 11:25:06;;;;;;;2.45;1.88;;;23.80;29.20;;;;;;4956777;28;45285;-38
2023/12/31 11:27:32;;;;;;;2.00;1.80;;;23.80;29.20;;;;;;4923559;28;47252;-38
2023/12/31 11:29:58;;;;;;;2.08;1.88;;;23.90;29.20;;;;;;4961548;28;47816;-40
2023/12/31 11:32:25;;;;;;;2.08;1.88;;;23.90;29.20;;;;;;4958148;28;45420;-39
2023/12/31 11:34:53;;;;;;;2.50;1.65;;;23.90;29.10;;;;;;4980042;28;44871;-40
2023/12/31 11:37:20;;;;;;;2.08;1.60;;;24.00;29.20;;;;;;4965394;28;45372;-38
2023/12/31 11:39:52;;;;;;;2.10;1.90;;;24.00;29.10;;;;;;4960557;28;45609;-40
2023/12/31 11:42:18;;;;;;;1.85;1.63;;;24.00;29.10;;;;;;4963441;28;45363;-40
2023/12/31 11:44:44;;;;;;;2.58;1.83;;;24.10;29.10;;;;;;4982853;28;45450;-39
2023/12/31 11:47:25;;;;;;;2.77;1.73;;;24.10;29.00;;;;;;4954767;28;45201;-39
2023/12/31 11:49:54;;;;;;;1.98;1.77;;;24.10;29.00;;;;;;4973399;28;45279;-39
2023/12/31 11:52:20;;;;;;;2.05;1.85;;;24.10;29.00;;;;;;4931115;28;45708;-39
2023/12/31 11:54:46;;;;;;;2.20;1.95;;;24.20;29.00;;;;;;4971945;28;46167;-44
2023/12/31 11:57:13;;;;;;;1.98;1.65;;;24.20;29.00;;;;;;4944342;28;46525;-44
2023/12/31 11:59:42;;;;;;;1.90;1.60;;;24.30;29.00;;;;;;4976046;28;45706;-46
2023/12/31 12:02:07;;;;;;;2.83;1.60;;;24.20;28.90;;;;;;4922535;28;45257;-43
2023/12/31 12:04:33;;;;;;;2.23;1.90;;;24.30;28.90;;;;;;4976421;28;45929;-45
2023/12/31 12:06:59;;;;;;;1.90;1.70;;;24.30;28.90;;;;;;4967344;28;45093;-42
2023/12/31 12:09:26;;;;;;;2.72;1.85;;;24.30;28.90;;;;;;4969329;28;45252;-44
2023/12/31 12:11:52;;;;;;;2.50;2.00;;;24.40;28.90;;;;;;4928294;28;45587;-43
2023/12/31 12:14:17;;;;;;;2.90;1.70;;;24.40;28.90;;;;;;4974093;28;45069;-41
2023/12/31 12:16:43;;;;;;;2.53;1.90;;;24.40;28.90;;;;;;4958942;28;46866;-42
2023/12/31 12:19:09;;;;;;;2.43;1.60;;;24.40;28.80;;;;;;4955250;28;45289;-43
2023/12/31 12:21:34;;;;;;;2.03;1.70;;;24.40;28.80;;;;;;4963004;28;45484;-43
2023/12/31 12:24:01;;;;;;;2.20;1.70;;;24.50;28.80;;;;;;4974591;28;45254;-43
2023/12/31 12:26:27;;;;;;;2.10;1.67;;;24.50;28.80;;;;;;4942023;28;45510;-42
2023/12/31 12:28:55;;;;;;;2.28;1.73;;;24.50;28.80;;;;;;4958907;28;44898;-44
2023/12/31 12:31:22;;;;;;;2.00;1.80;;;24.50;28.80;;;;;;4937131;28;45575;-44
2023/12/31 12:33:54;;;;;;;1.85;1.65;;;24.50;28.80;;;;;;4971741;28;45430;-45
2023/12/31 12:36:23;;;;;;;2.30;2.00;;;24.60;28.80;;;;;;4928675;28;46387;-45
2023/12/31 12:38:48;;;;;;;2.00;1.50;;;24.60;28.80;;;;;;4958651;28;45847;-43
2023/12/31 12:41:21;;;;;;;2.17;1.67;;;24.60;28.80;;;;;;4958469;28;45334;-44
2023/12/31 12:43:50;;;;;;;1.83;1.63;;;24.60;28.80;;;;;;4960633;28;45915;-44
2023/12/31 12:46:16;;;;;;;2.35;1.67;;;24.60;28.70;;;;;;4960610;28;45288;-42
2023/12/31 12:48:48;;;;;;;2.03;1.70;;;24.60;28.70;;;;;;4958603;28;45703;-43
2023/12/31 12:51:14;;;;;;;2.33;1.77;;;24.60;28.70;;;;;;4953228;28;44669;-43
2023/12/31 12:53:39;;;;;;;1.93;1.60;;;24.70;28.70;;;;;;4968041;28;45616;-42
2023/12/31 12:56:05;;;;;;;2.17;1.60;;;24.70;28.70;;;;;;4968268;28;45721;-42
2023/12/31 12:58:31;;;;;;;2.73;1.57;;;24.70;28.70;;;;;;4969725;28;45100;-43
2023/12/31 13:00:57;;;;;;;1.60;1.50;;;24.70;28.70;;;;;;4961306;28;45551;-43
2023/12/31 13:03:22;;;;;;;1.83;1.42;;;24.70;29.10;;;;;;4944208;28;45611;-44
2023/12/31 13:05:48;;;;;;;1.58;1.40;;;24.70;28.70;;;;;;4963573;28;45552;-43
2023/12/31 13:08:14;;;;;;;2.25;1.67;;;24.70;28.60;;;;;;4972546;28;45089;-44
2023/12/31 13:10:39;;;;;;;1.88;1.75;;;24.70;28.60;;;;;;4963654;28;45552;-42
2023/12/31 13:13:05;;;;;;;1.53;1.43;;;24.80;28.70;;;;;;4954122;28;45106;-42
2023/12/31 13:15:30;;;;;;;3.20;1.70;;;24.80;28.70;;;;;;4933762;28;48097;-45
2023/12/31 13:17:56;;;;;;;1.70;1.30;;;24.80;28.70;;;;;;4969864;28;44700;-44
2023/12/31 13:20:24;;;;;;;1.57;1.40;;;24.80;28.70;;;;;;4941673;28;45282;-44
2023/12/31 13:22:50;;;;;;;2.55;1.65;;;24.80;28.70;;;;;;4968948;28;46676;-42
2023/12/31 13:25:15;;;;;;;1.70;1.60;;;24.80;28.70;;;;;;4961115;28;48035;-44
2023/12/31 13:27:41;;;;;;;2.40;1.65;;;24.80;28.70;;;;;;4973843;28;45861;-42
2023/12/31 13:30:08;;;;;;;2.00;1.50;;;24.80;28.70;;;;;;4972163;28;45794;-39
2023/12/31 13:32:34;;;;;;;1.70;1.38;;;24.80;28.70;;;;;;4905014;28;46151;-39
2023/12/31 13:34:59;;;;;;;2.08;1.60;;;24.80;28.70;;;;;;4955879;28;45382;-40
2023/12/31 13:37:25;;;;;;;2.10;1.60;;;24.80;28.70;;;;;;4945513;28;45854;-39
2023/12/31 13:39:51;;;;;;;2.40;1.80;;;24.80;28.70;;;;;;4958552;28;46647;-40
2023/12/31 13:42:16;;;;;;;1.77;1.60;;;24.80;28.70;;;;;;4923571;28;45738;-39
2023/12/31 13:44:42;;;;;;;2.03;1.43;;;24.80;28.60;;;;;;4938376;28;45248;-40
2023/12/31 13:47:08;;;;;;;1.80;1.60;;;24.80;28.60;;;;;;4946636;28;45353;-39
2023/12/31 13:49:33;;;;;;;3.10;1.58;;;24.80;28.60;;;;;;4936383;28;45540;-40
2023/12/31 13:51:59;;;;;;;2.10;1.65;;;24.80;28.60;;;;;;4950063;28;45668;-39
2023/12/31 13:54:24;;;;;;;1.95;1.48;;;24.80;28.60;;;;;;4957155;28;45939;-39
2023/12/31 13:56:50;;;;;;;1.90;1.50;;;24.90;28.60;;;;;;4962005;28;45529;-38
2023/12/31 13:59:16;;;;;;;1.93;1.50;;;24.80;28.60;;;;;;4950783;28;45035;-40
2023/12/31 14:01:41;;;;;;;1.60;1.30;;;24.80;28.60;;;;;;4952193;28;45446;-40
2023/12/31 14:04:07;;;;;;;1.90;1.70;;;24.80;28.60;;;;;;4965925;28;45683;-39
2023/12/31 14:06:33;;;;;;;2.10;1.60;;;24.80;28.60;;;;;;4960816;28;45339;-40
2023/12/31 14:08:59;;;;;;;2.17;1.50;;;24.80;28.60;;;;;;4970201;28;45588;-40
2023/12/31 14:11:25;;;;;;;2.20;1.50;;;24.80;28.60;;;;;;4959444;28;45177;-41
2023/12/31 14:13:50;;;;;;;1.60;1.50;;;24.80;28.60;;;;;;4969588;28;45186;-39
2023/12/31 14:16:16;;;;;;;1.90;1.60;;;24.80;28.60;;;;;;4947985;28;45361;-39
2023/12/31 14:18:41;;;;;;;1.70;1.60;;;24.80;28.60;;;;;;4966213;28;45888;-39
2023/12/31 14:21:07;;;;;;;2.30;1.70;;;24.80;28.60;;;;;;4961207;28;45996;-39
2023/12/31 14:23:32;;;;;;;1.87;1.60;;;24.80;28.60;;;;;;4943363;28;47458;-40
2023/12/31 14:25:58;;;;;;;1.50;1.33;;;24.80;28.60;;;;;;4968794;28;45389;-39
2023/12/31 14:28:24;;;;;;;1.60;1.40;;;24.80;28.60;;;;;;4961765;28;45413;-40
2023/12/31 14:30:49;;;;;;;1.50;1.17;;;24.80;28.60;;;;;;4956762;28;45567;-38
2023/12/31 14:33:15;;;;;;;1.92;1.50;;;24.80;28.60;;;;;;4964502;28;45907;-40
2023/12/31 14:35:40;;;;;;;1.77;1.20;;;24.80;28.60;;;;;;4934263;28;45170;-39
2023/12/31 14:38:06;;;;;;;1.77;1.23;;;24.80;28.60;;;;;;4955472;28;45331;-40
2023/12/31 14:40:31;;;;;;;1.58;1.08;;;24.80;28.60;;;;;;4950503;28;45234;-39
2023/12/31 14:42:57;;;;;;;1.67;1.23;;;24.80;28.70;;;;;;4964269;28;45151;-39
2023/12/31 14:45:22;;;;;;;1.73;1.03;;;24.80;28.60;;;;;;4949115;28;45195;-40
2023/12/31 14:47:49;;;;;;;1.30;1.00;;;24.80;28.70;;;;;;4963134;28;45227;-38
2023/12/31 14:50:14;;;;;;;2.08;1.23;;;24.80;28.70;;;;;;4936546;28;45662;-39
2023/12/31 14:52:40;;;;;;;1.07;0.97;;;24.80;28.70;;;;;;4956218;28;45678;-39
2023/12/31 14:55:07;;;;;;;1.37;0.93;;;24.80;28.70;;;;;;4944309;28;45508;-40
2023/12/31 14:57:33;;;;;;;0.98;0.88;;;24.70;28.60;;;;;;4960800;28;44794;-40
2023/12/31 14:59:58;;;;;;;1.40;0.90;;;24.70;28.60;;;;;;4964247;28;46413;-39
2023/12/31 15:02:25;;;;;;;1.30;1.00;;;24.80;28.70;;;;;;4926567;28;45673;-39
2023/12/31 15:04:50;;;;;;;1.77;1.00;;;24.80;28.70;;;;;;4965582;28;44975;-42
2023/12/31 15:07:16;;;;;;;0.93;0.87;;;24.80;28.70;;;;;;4932708;28;45629;-38
2023/12/31 15:09:42;;;;;;;0.90;0.80;;;24.70;28.70;;;;;;4950326;28;46209;-39
2023/12/31 15:12:08;;;;;;;1.52;0.85;;;24.80;28.70;;;;;;4948645;28;46226;-40
2023/12/31 15:14:33;;;;;;;1.17;0.90;;;24.70;28.70;;;;;;4960296;28;45784;-39
2023/12/31 15:16:59;;;;;;;1.23;0.95;;;24.80;28.80;;;;;;4928259;28;45395;-39
2023/12/31 15:19:24;;;;;;;1.90;0.90;;;24.80;28.80;;;;;;4960734;28;45575;-38
2023/12/31 15:21:50;;;;;;;0.88;0.73;;;24.80;28.80;;;;;;4934397;28;47778;-39
2023/12/31 15:24:16;;;;;;;2.45;0.88;;;24.80;28.80;;;;;;4949636;28;45403;-40
2023/12/31 15:26:42;;;;;;;0.82;0.60;;;24.70;28.80;;;;;;4949708;28;45255;-42
2023/12/31 15:29:08;;;;;;;1.03;0.90;;;24.70;28.80;;;;;;4963714;28;46551;-42
2023/12/31 15:31:37;;;;;;;0.70;0.70;;;24.70;28.80;;;;;;4945300;28;45509;-42
2023/12/31 15:34:03;;;;;;;0.90;0.80;;;24.70;28.80;;;;;;4954047;28;45015;-43
2023/12/31 15:36:28;;;;;;;1.50;0.85;;;24.70;28.80;;;;;;4947303;28;45406;-44
2023/12/31 15:38:54;;;;;;;1.13;0.80;;;24.70;28.80;;;;;;4951327;28;48019;-44
2023/12/31 15:41:22;;;;;;;1.97;0.97;;;24.70;28.80;;;;;;4943167;28;45614;-38
2023/12/31 15:43:48;;;;;;;1.10;1.00;;;24.70;28.80;;;;;;4924430;28;45955;-39
2023/12/31 15:46:14;;;;;;;1.40;1.10;;;24.70;28.80;;;;;;4939205;28;45764;-39
2023/12/31 15:48:40;;;;;;;1.97;1.20;;;24.70;28.80;;;;;;4949758;28;46305;-39
2023/12/31 15:51:10;;;;;;;1.73;1.33;;;24.70;28.90;;;;;;4906943;28;45785;-41
2023/12/31 15:53:37;;;;;;;2.40;1.50;;;24.70;28.80;;;;;;4936301;28;45076;-40
2023/12/31 15:56:02;;;;;;;2.60;1.80;;;24.80;28.90;;;;;;4947418;28;45899;-39
2023/12/31 15:58:28;;;;;;;2.70;1.77;;;24.70;28.80;;;;;;4953523;28;45710;-40
2023/12/31 16:00:53;;;;;;;2.73;1.70;;;24.70;28.90;;;;;;4934532;28;45474;-39
2023/12/31 16:03:19;;;;;;;3.17;1.90;;;24.70;28.90;;;;;;4939554;28;45312;-40
2023/12/31 16:05:45;;;;;;;3.60;2.37;;;24.70;28.90;;;;;;4938369;28;46540;-40
2023/12/31 16:08:11;;;;;;;2.95;2.22;;;24.70;28.90;;;;;;4894922;28;45618;-40
2023/12/31 16:10:36;;;;;;;4.43;2.38;;;24.70;28.90;;;;;;4916824;28;45737;-40
2023/12/31 16:13:02;;;;;;;3.83;2.33;;;24.70;28.90;;;;;;4928548;28;45941;-39
2023/12/31 16:15:28;;;;;;;3.90;2.30;;;24.70;28.90;;;;;;4918300;28;45834;-38
2023/12/31 16:17:53;;;;;;;3.47;2.40;;;24.70;28.90;;;;;;4932622;28;46203;-40
2023/12/31 16:20:19;;;;;;;4.40;2.80;;;24.70;28.90;;;;;;4925397;28;45605;-39
2023/12/31 16:22:45;;;;;;;4.60;2.97;;;24.70;28.90;;;;;;4928957;28;45306;-38
2023/12/31 16:25:11;;;;;;;5.30;3.17;;;24.60;28.90;;;;;;4936812;28;46319;-40
2023/12/31 16:27:37;;;;;;;4.72;3.08;;;24.60;28.90;;;;;;4936369;28;45353;-40
2023/12/31 16:30:07;;;;;;;4.90;3.03;;;24.70;29.00;;;;;;4905460;28;46846;-39
2023/12/31 16:32:33;;;;;;;4.30;3.10;;;24.60;28.90;;;;;;4912182;28;44736;-40
2023/12/31 16:34:59;;;;;;;4.28;2.92;;;24.60;29.00;;;;;;4940571;28;45415;-39
2023/12/31 16:37:26;;;;;;;4.57;2.90;;;24.60;28.90;;;;;;4928982;28;45237;-39
2023/12/31 16:39:51;;;;;;;4.60;3.00;;;24.60;29.00;;;;;;4915746;28;47084;-40
2023/12/31 16:42:17;;;;;;;4.47;3.37;;;24.60;29.00;;;;;;4929863;28;45788;-39